Time;durP1;ratioP1;P1;durP2;ratioP2;P2;SDS_P1;SDS_P2;PMS_P1;PMS_P2;Temp;Humidity;BMP_temperature;BMP_pressure;BME280_temperature;BME280_humidity;BME280_pressure;Samples;Min_cycle;Max_cycle;Signal;HPM_P1;HPM_P2
2022/09/17 00:01:05;;;;;;;3.75;2.55;;;8.60;99.90;;;;;;4981197;28;20587;-53
2022/09/17 00:03:33;;;;;;;3.42;2.55;;;8.60;99.90;;;;;;4976605;28;20037;-53
2022/09/17 00:06:01;;;;;;;6.25;2.83;;;8.60;99.90;;;;;;4974403;28;20902;-53
2022/09/17 00:08:28;;;;;;;2.80;2.22;;;8.60;99.90;;;;;;4980070;28;20048;-53
2022/09/17 00:10:55;;;;;;;4.18;2.08;;;8.60;99.90;;;;;;4984253;28;20045;-54
2022/09/17 00:13:22;;;;;;;5.95;3.38;;;8.70;99.90;;;;;;4983723;28;20045;-53
2022/09/17 00:15:51;;;;;;;2.80;2.45;;;8.60;99.90;;;;;;4979258;28;20056;-53
2022/09/17 00:18:18;;;;;;;4.88;3.20;;;8.70;99.90;;;;;;4985225;28;20052;-54
2022/09/17 00:20:46;;;;;;;;;;;8.70;99.90;;;;;;4982777;28;20041;-54
2022/09/17 00:23:14;;;;;;;5.18;2.47;;;8.70;99.90;;;;;;4982898;28;20384;-54
2022/09/17 00:25:43;;;;;;;4.57;2.95;;;8.70;99.90;;;;;;4984352;28;20667;-52
2022/09/17 00:28:12;;;;;;;3.13;2.83;;;8.70;99.90;;;;;;4985646;28;20041;-53
2022/09/17 00:30:41;;;;;;;6.65;3.50;;;8.70;99.90;;;;;;4981787;28;20057;-52
2022/09/17 00:33:11;;;;;;;3.20;2.80;;;8.70;99.90;;;;;;4981550;28;20180;-53
2022/09/17 00:35:38;;;;;;;4.22;2.80;;;8.70;99.90;;;;;;4982939;28;20037;-56
2022/09/17 00:38:05;;;;;;;;;;;8.70;99.90;;;;;;4981473;28;20873;-52
2022/09/17 00:40:32;;;;;;;11.55;4.72;;;8.70;99.90;;;;;;4982065;28;19921;-53
2022/09/17 00:42:59;;;;;;;6.03;2.88;;;8.70;99.90;;;;;;4984001;28;20148;-53
2022/09/17 00:45:26;;;;;;;;;;;8.70;99.90;;;;;;4984303;28;20131;-54
2022/09/17 00:47:59;;;;;;;4.20;2.33;;;8.70;99.90;;;;;;4982732;28;20023;-53
2022/09/17 00:50:32;;;;;;;4.20;2.97;;;8.70;99.90;;;;;;4991211;28;20051;-52
2022/09/17 00:53:05;;;;;;;7.97;2.83;;;8.70;99.90;;;;;;4982164;28;20597;-53
2022/09/17 00:55:38;;;;;;;4.38;2.95;;;8.70;99.90;;;;;;4979723;28;20115;-54
2022/09/17 00:58:08;;;;;;;4.95;2.20;;;8.70;99.90;;;;;;4985417;28;20040;-53
2022/09/17 01:00:36;;;;;;;3.38;2.50;;;8.70;99.90;;;;;;4990388;28;20045;-52
2022/09/17 01:03:03;;;;;;;3.95;2.38;;;8.70;99.90;;;;;;4981269;28;20033;-53
2022/09/17 01:05:43;;;;;;;4.53;2.90;;;8.70;99.90;;;;;;4989866;28;20037;-54
2022/09/17 01:08:18;;;;;;;5.75;2.60;;;8.70;99.90;;;;;;4982835;28;20225;-52
2022/09/17 01:11:12;;;;;;;4.03;3.20;;;8.70;99.90;;;;;;4985915;28;20356;-53
2022/09/17 01:14:10;;;;;;;3.35;2.50;;;8.70;99.90;;;;;;4981857;28;20050;-52
2022/09/17 01:16:55;;;;;;;2.13;1.92;;;8.70;99.90;;;;;;4982931;28;20132;-52
2022/09/17 01:19:48;;;;;;;3.92;2.15;;;8.70;99.90;;;;;;4989794;28;20500;-52
2022/09/17 01:22:45;;;;;;;2.63;2.42;;;8.70;99.90;;;;;;4986681;28;20860;-53
2022/09/17 01:25:31;;;;;;;5.32;2.50;;;8.60;99.90;;;;;;4980151;28;20050;-53
2022/09/17 01:28:07;;;;;;;3.53;2.85;;;8.60;99.90;;;;;;4988512;28;20528;-53
2022/09/17 01:30:43;;;;;;;4.47;2.72;;;8.60;99.90;;;;;;4983369;28;20044;-54
2022/09/17 01:33:20;;;;;;;3.85;2.83;;;8.60;99.90;;;;;;4986541;28;20041;-53
2022/09/17 01:36:16;;;;;;;6.10;3.15;;;8.60;99.90;;;;;;4983028;28;20148;-53
2022/09/17 01:39:18;;;;;;;4.05;3.15;;;8.70;99.90;;;;;;4972392;28;20049;-53
2022/09/17 01:42:04;;;;;;;5.90;3.50;;;8.60;99.90;;;;;;4987789;28;20037;-53
2022/09/17 01:45:02;;;;;;;6.25;4.80;;;8.60;99.90;;;;;;4987904;28;20260;-53
2022/09/17 01:47:36;;;;;;;5.90;3.92;;;8.60;99.90;;;;;;4985578;28;20543;-53
2022/09/17 01:50:08;;;;;;;8.10;4.63;;;8.70;99.90;;;;;;4984615;28;20060;-54
2022/09/17 01:52:39;;;;;;;6.78;4.40;;;8.70;99.90;;;;;;4981673;28;20152;-54
2022/09/17 01:55:11;;;;;;;5.65;4.68;;;8.70;99.90;;;;;;4985746;28;20147;-53
2022/09/17 01:57:55;;;;;;;7.43;5.70;;;8.70;99.90;;;;;;4981904;28;20816;-53
2022/09/17 02:00:22;;;;;;;7.95;5.80;;;8.70;99.90;;;;;;4993037;28;20041;-52
2022/09/17 02:02:59;;;;;;;6.90;5.53;;;8.70;99.90;;;;;;4987345;28;20559;-53
2022/09/17 02:05:40;;;;;;;7.43;5.97;;;8.70;99.90;;;;;;4985545;28;20178;-53
2022/09/17 02:08:26;;;;;;;9.20;6.60;;;8.70;99.90;;;;;;4984406;28;20041;-53
2022/09/17 02:11:06;;;;;;;12.30;7.07;;;8.70;99.90;;;;;;4985851;28;20589;-52
2022/09/17 02:13:58;;;;;;;10.48;6.50;;;8.70;99.90;;;;;;4986980;28;20781;-53
2022/09/17 02:16:43;;;;;;;10.10;7.05;;;8.80;99.90;;;;;;4983360;28;20912;-53
2022/09/17 02:19:17;;;;;;;15.23;6.68;;;8.80;99.90;;;;;;4986245;28;20144;-54
2022/09/17 02:21:53;;;;;;;10.40;7.13;;;8.80;99.90;;;;;;4991764;28;20038;-54
2022/09/17 02:24:33;;;;;;;8.18;6.15;;;8.80;99.90;;;;;;4984139;28;20325;-54
2022/09/17 02:27:06;;;;;;;10.00;6.35;;;8.80;99.90;;;;;;4985890;28;20029;-54
2022/09/17 02:29:37;;;;;;;11.68;6.53;;;8.80;99.90;;;;;;4984509;28;20155;-54
2022/09/17 02:32:05;;;;;;;9.07;6.22;;;8.80;99.90;;;;;;4985350;28;20041;-53
2022/09/17 02:34:33;;;;;;;8.10;5.78;;;8.80;99.90;;;;;;4986624;28;20048;-52
2022/09/17 02:37:02;;;;;;;8.30;6.03;;;8.80;99.90;;;;;;4969157;28;20614;-54
2022/09/17 02:39:29;;;;;;;7.47;6.28;;;8.80;99.90;;;;;;4980490;28;20050;-54
2022/09/17 02:41:59;;;;;;;7.20;5.47;;;8.70;99.90;;;;;;4986085;28;20433;-54
2022/09/17 02:44:32;;;;;;;10.73;6.20;;;8.80;99.90;;;;;;4985778;28;20052;-53
2022/09/17 02:47:29;;;;;;;6.43;4.88;;;8.80;99.90;;;;;;4983416;28;20048;-54
2022/09/17 02:50:17;;;;;;;8.20;5.13;;;8.70;99.90;;;;;;4981785;28;20056;-54
2022/09/17 02:53:22;;;;;;;7.00;5.53;;;8.70;99.90;;;;;;4995840;28;20460;-54
2022/09/17 02:56:01;;;;;;;9.13;5.72;;;8.70;99.90;;;;;;4954051;28;20819;-53
2022/09/17 02:58:52;;;;;;;8.25;6.05;;;8.70;99.90;;;;;;4981495;28;20683;-54
2022/09/17 03:01:53;;;;;;;9.18;4.78;;;8.70;99.90;;;;;;4988341;28;20835;-53
2022/09/17 03:04:22;;;;;;;8.20;5.25;;;8.70;99.90;;;;;;4983736;28;20806;-53
2022/09/17 03:06:51;;;;;;;6.40;5.03;;;8.70;99.90;;;;;;4969278;28;20139;-53
2022/09/17 03:09:18;;;;;;;7.53;5.43;;;8.70;99.90;;;;;;4978710;28;20842;-54
2022/09/17 03:11:45;;;;;;;7.65;5.20;;;8.70;99.90;;;;;;4984391;28;20593;-54
2022/09/17 03:14:12;;;;;;;9.63;5.65;;;8.70;99.90;;;;;;4989969;28;20804;-54
2022/09/17 03:16:39;;;;;;;;;;;8.70;99.90;;;;;;4981244;28;20531;-53
2022/09/17 03:19:06;;;;;;;9.43;5.55;;;8.70;99.90;;;;;;4985992;28;20030;-54
2022/09/17 03:21:33;;;;;;;6.47;4.63;;;8.70;99.90;;;;;;4983512;28;20202;-52
2022/09/17 03:24:00;;;;;;;7.43;5.00;;;8.70;99.90;;;;;;4980494;28;20822;-54
2022/09/17 03:26:27;;;;;;;7.43;4.82;;;8.70;99.90;;;;;;4979424;28;20063;-53
2022/09/17 03:28:54;;;;;;;7.82;4.75;;;8.70;99.90;;;;;;4982567;28;20037;-54
2022/09/17 03:31:21;;;;;;;;;;;8.70;99.90;;;;;;4983632;28;20042;-54
2022/09/17 03:33:49;;;;;;;9.55;4.40;;;8.60;99.90;;;;;;4976919;28;19928;-53
2022/09/17 03:36:16;;;;;;;7.75;4.55;;;8.60;99.90;;;;;;4989114;28;20400;-53
2022/09/17 03:38:43;;;;;;;8.45;4.43;;;8.60;99.90;;;;;;4979439;28;20861;-52
2022/09/17 03:41:11;;;;;;;6.00;3.65;;;8.60;99.90;;;;;;4985650;28;20241;-53
2022/09/17 03:43:39;;;;;;;4.63;3.33;;;8.50;99.90;;;;;;4984952;28;20068;-54
2022/09/17 03:46:06;;;;;;;6.85;3.92;;;8.50;99.90;;;;;;4985848;28;20037;-53
2022/09/17 03:48:35;;;;;;;9.80;3.63;;;8.40;99.90;;;;;;4985154;28;20048;-53
2022/09/17 03:51:03;;;;;;;9.35;3.88;;;8.40;99.90;;;;;;4985999;28;20248;-53
2022/09/17 03:53:31;;;;;;;5.88;3.88;;;8.40;99.90;;;;;;4982401;28;20049;-54
2022/09/17 03:56:00;;;;;;;9.63;4.35;;;8.40;99.90;;;;;;4984720;28;20294;-53
2022/09/17 03:58:29;;;;;;;7.90;3.78;;;8.30;99.90;;;;;;4984137;28;20864;-53
2022/09/17 04:00:57;;;;;;;4.03;3.47;;;8.30;99.90;;;;;;4982753;28;20037;-52
2022/09/17 04:03:27;;;;;;;7.18;3.75;;;8.40;99.90;;;;;;4984611;28;20175;-53
2022/09/17 04:05:55;;;;;;;5.85;3.92;;;8.30;99.90;;;;;;4990085;28;20507;-52
2022/09/17 04:08:24;;;;;;;5.90;4.20;;;8.30;99.90;;;;;;4981122;28;20037;-53
2022/09/17 04:10:52;;;;;;;6.35;4.25;;;8.30;99.90;;;;;;4987825;28;20924;-52
2022/09/17 04:13:20;;;;;;;12.18;4.43;;;8.30;99.90;;;;;;4984184;28;20061;-53
2022/09/17 04:15:47;;;;;;;4.60;4.13;;;8.30;99.90;;;;;;4983645;28;20073;-53
2022/09/17 04:18:15;;;;;;;5.70;4.13;;;8.20;99.90;;;;;;4984368;28;20367;-54
2022/09/17 04:20:45;;;;;;;6.55;4.60;;;8.20;99.90;;;;;;4984445;28;20166;-56
2022/09/17 04:23:13;;;;;;;9.07;4.60;;;8.20;99.90;;;;;;4988963;28;20416;-53
2022/09/17 04:25:40;;;;;;;3.83;3.47;;;8.20;99.90;;;;;;4984506;28;20645;-53
2022/09/17 04:28:08;;;;;;;9.43;4.00;;;8.10;99.90;;;;;;4991357;28;20052;-53
2022/09/17 04:30:36;;;;;;;6.45;4.20;;;8.10;99.90;;;;;;4985859;28;20505;-52
2022/09/17 04:33:03;;;;;;;4.30;3.90;;;8.00;99.90;;;;;;4994699;28;20045;-53
2022/09/17 04:35:30;;;;;;;7.53;3.90;;;8.00;99.90;;;;;;4975313;28;20056;-53
2022/09/17 04:37:58;;;;;;;5.38;3.90;;;8.00;99.90;;;;;;4983282;28;20049;-53
2022/09/17 04:40:27;;;;;;;5.93;3.95;;;8.00;99.90;;;;;;4982642;28;20033;-53
2022/09/17 04:43:02;;;;;;;7.40;3.88;;;8.00;99.90;;;;;;4974907;28;20374;-53
2022/09/17 04:45:32;;;;;;;5.72;4.85;;;7.90;99.90;;;;;;4985974;28;20221;-51
2022/09/17 04:48:00;;;;;;;9.38;4.50;;;7.90;99.90;;;;;;4977008;28;20129;-53
2022/09/17 04:50:28;;;;;;;6.72;4.93;;;7.90;99.90;;;;;;4969537;28;20048;-53
2022/09/17 04:52:56;;;;;;;9.80;3.97;;;7.90;99.90;;;;;;4974577;28;20628;-54
2022/09/17 04:55:24;;;;;;;7.05;4.15;;;7.90;99.90;;;;;;4990878;28;20041;-54
2022/09/17 04:57:52;;;;;;;7.15;4.57;;;7.90;99.90;;;;;;4986580;28;20045;-54
2022/09/17 05:00:21;;;;;;;8.95;4.47;;;7.80;99.90;;;;;;4982106;28;20064;-55
2022/09/17 05:02:52;;;;;;;7.97;6.18;;;7.80;99.90;;;;;;4985952;28;20044;-55
2022/09/17 05:05:19;;;;;;;9.13;4.15;;;7.80;99.90;;;;;;4985714;28;20156;-54
2022/09/17 05:07:47;;;;;;;8.82;4.30;;;7.80;99.90;;;;;;4996345;28;20042;-53
2022/09/17 05:10:17;;;;;;;4.78;4.03;;;7.80;99.90;;;;;;4988695;28;20820;-55
2022/09/17 05:12:53;;;;;;;4.68;4.15;;;7.80;99.90;;;;;;4988802;28;20041;-55
2022/09/17 05:15:21;;;;;;;8.57;4.68;;;7.70;99.90;;;;;;4987150;28;20956;-53
2022/09/17 05:17:49;;;;;;;5.47;4.35;;;7.70;99.90;;;;;;4984747;28;20462;-51
2022/09/17 05:20:16;;;;;;;5.40;4.65;;;7.70;99.90;;;;;;4987458;28;20424;-53
2022/09/17 05:22:45;;;;;;;7.45;5.10;;;7.70;99.90;;;;;;4988092;28;20049;-52
2022/09/17 05:25:15;;;;;;;7.13;4.47;;;7.70;99.90;;;;;;4986185;28;20214;-52
2022/09/17 05:27:42;;;;;;;6.18;4.82;;;7.70;99.90;;;;;;4983790;28;20522;-54
2022/09/17 05:30:10;;;;;;;5.30;4.10;;;7.70;99.90;;;;;;4983317;28;20050;-53
2022/09/17 05:32:39;;;;;;;6.43;4.15;;;7.70;99.90;;;;;;4988107;28;20216;-54
2022/09/17 05:35:07;;;;;;;8.52;4.57;;;7.70;99.90;;;;;;4991244;28;20539;-52
2022/09/17 05:37:34;;;;;;;6.32;4.88;;;7.70;99.90;;;;;;4983104;28;20033;-51
2022/09/17 05:40:05;;;;;;;8.23;4.20;;;7.70;99.90;;;;;;4995655;28;20059;-53
2022/09/17 05:42:34;;;;;;;11.13;4.38;;;7.70;99.90;;;;;;4985477;28;20056;-54
2022/09/17 05:45:05;;;;;;;9.05;4.13;;;7.70;99.90;;;;;;4982260;28;20229;-54
2022/09/17 05:47:34;;;;;;;5.18;3.95;;;7.70;99.90;;;;;;4989602;28;20280;-53
2022/09/17 05:50:02;;;;;;;5.93;4.55;;;7.70;99.90;;;;;;4986632;28;20223;-56
2022/09/17 05:52:32;;;;;;;5.78;3.83;;;7.80;99.90;;;;;;4994602;28;20403;-57
2022/09/17 05:55:01;;;;;;;6.22;3.08;;;7.80;99.90;;;;;;4988612;28;20041;-56
2022/09/17 05:57:30;;;;;;;5.85;3.33;;;7.80;99.90;;;;;;4985090;28;20693;-54
2022/09/17 05:59:57;;;;;;;7.53;3.60;;;7.80;99.90;;;;;;4988615;28;20038;-54
2022/09/17 06:02:24;;;;;;;4.53;3.42;;;7.80;99.90;;;;;;4986343;28;20222;-55
2022/09/17 06:04:51;;;;;;;6.78;3.88;;;7.90;99.90;;;;;;4994666;28;20037;-54
2022/09/17 06:07:18;;;;;;;6.53;3.53;;;7.90;99.90;;;;;;4985385;28;20049;-53
2022/09/17 06:09:45;;;;;;;6.32;3.85;;;7.90;99.90;;;;;;4989443;28;20052;-54
2022/09/17 06:12:12;;;;;;;3.88;3.10;;;7.90;99.90;;;;;;4988400;28;20220;-55
2022/09/17 06:14:40;;;;;;;4.03;3.17;;;7.90;99.90;;;;;;4993831;28;20040;-53
2022/09/17 06:17:07;;;;;;;9.10;3.63;;;7.90;99.90;;;;;;4986959;28;20032;-55
2022/09/17 06:19:34;;;;;;;4.00;2.80;;;7.90;99.90;;;;;;4984351;28;20768;-54
2022/09/17 06:22:04;;;;;;;6.40;3.00;;;7.90;99.90;;;;;;4983824;28;20354;-55
2022/09/17 06:24:37;;;;;;;5.20;2.95;;;8.00;99.90;;;;;;4986538;28;20227;-54
2022/09/17 06:27:05;;;;;;;4.78;3.17;;;8.00;99.90;;;;;;4986088;28;20049;-55
2022/09/17 06:29:33;;;;;;;6.28;2.95;;;8.00;99.90;;;;;;4979715;28;20916;-55
2022/09/17 06:32:01;;;;;;;9.50;4.40;;;8.00;99.90;;;;;;4993980;28;20032;-54
2022/09/17 06:34:31;;;;;;;8.73;2.83;;;8.10;99.90;;;;;;4988557;28;20037;-55
2022/09/17 06:36:59;;;;;;;5.30;3.28;;;8.10;99.90;;;;;;4997183;28;20804;-55
2022/09/17 06:39:27;;;;;;;9.38;3.10;;;8.10;99.90;;;;;;4996106;28;20344;-55
2022/09/17 06:41:54;;;;;;;4.30;2.70;;;8.10;99.90;;;;;;4995135;28;20041;-55
2022/09/17 06:44:21;;;;;;;8.40;2.80;;;8.10;99.90;;;;;;4983051;28;20399;-55
2022/09/17 06:46:52;;;;;;;6.18;2.38;;;8.10;99.90;;;;;;4985797;28;20614;-55
2022/09/17 06:49:21;;;;;;;5.47;2.67;;;8.10;99.90;;;;;;4993929;28;20314;-56
2022/09/17 06:51:48;;;;;;;6.07;3.28;;;8.10;99.90;;;;;;4978426;28;20142;-55
2022/09/17 06:54:15;;;;;;;5.72;2.90;;;8.10;99.90;;;;;;4989213;28;20037;-53
2022/09/17 06:56:46;;;;;;;3.17;2.50;;;8.10;99.90;;;;;;4987677;28;20132;-52
2022/09/17 06:59:14;;;;;;;8.63;2.50;;;8.10;99.90;;;;;;4976911;28;20074;-52
2022/09/17 07:01:42;;;;;;;5.55;2.70;;;8.20;99.90;;;;;;4986509;28;20044;-52
2022/09/17 07:04:09;;;;;;;7.43;3.08;;;8.20;99.90;;;;;;4985336;28;20041;-53
2022/09/17 07:06:36;;;;;;;6.30;2.78;;;8.20;99.90;;;;;;4983131;28;20551;-52
2022/09/17 07:09:03;;;;;;;2.67;2.00;;;8.20;99.90;;;;;;4984682;28;20053;-53
2022/09/17 07:11:38;;;;;;;5.72;2.22;;;8.20;99.90;;;;;;4984829;28;20051;-53
2022/09/17 07:14:05;;;;;;;3.40;2.38;;;8.20;99.90;;;;;;4985059;28;20045;-54
2022/09/17 07:16:34;;;;;;;4.10;2.03;;;8.20;99.90;;;;;;4986093;28;20037;-52
2022/09/17 07:19:03;;;;;;;5.05;2.70;;;8.30;99.90;;;;;;4987347;28;20041;-52
2022/09/17 07:21:31;;;;;;;5.93;2.85;;;8.30;99.90;;;;;;4986633;28;20072;-53
2022/09/17 07:23:58;;;;;;;6.03;2.63;;;8.30;99.90;;;;;;4986609;28;20245;-56
2022/09/17 07:26:25;;;;;;;3.90;2.22;;;8.40;99.90;;;;;;4978044;28;20138;-54
2022/09/17 07:28:53;;;;;;;2.63;2.00;;;8.40;99.90;;;;;;4985974;28;20044;-55
2022/09/17 07:31:20;;;;;;;5.57;2.13;;;8.40;99.90;;;;;;4985007;28;20042;-53
2022/09/17 07:33:48;;;;;;;3.88;1.90;;;8.40;99.90;;;;;;4991545;28;20107;-53
2022/09/17 07:36:19;;;;;;;2.75;1.90;;;8.40;99.90;;;;;;4986540;28;20040;-55
2022/09/17 07:38:46;;;;;;;4.97;2.03;;;8.40;99.90;;;;;;4987038;28;20049;-54
2022/09/17 07:44:27;;;;;;;6.45;2.05;;;8.40;99.90;;;;;;4983759;28;20045;-55
2022/09/17 07:46:56;;;;;;;4.60;2.03;;;8.40;99.90;;;;;;4985152;28;20378;-56
2022/09/17 07:49:23;;;;;;;6.60;1.70;;;8.40;99.90;;;;;;4982952;28;20621;-56
2022/09/17 07:51:51;;;;;;;1.75;1.60;;;8.40;99.90;;;;;;4980707;28;20048;-56
2022/09/17 07:54:18;;;;;;;2.88;1.80;;;8.30;99.90;;;;;;4979797;28;20766;-56
2022/09/17 07:56:46;;;;;;;2.55;1.92;;;8.30;99.90;;;;;;4983823;28;20041;-56
2022/09/17 07:59:13;;;;;;;4.13;1.50;;;8.30;99.90;;;;;;4987680;28;20037;-56
2022/09/17 08:01:41;;;;;;;3.40;1.83;;;8.20;99.90;;;;;;4992831;28;20064;-55
2022/09/17 08:04:08;;;;;;;2.15;1.90;;;8.20;99.90;;;;;;4978186;28;20157;-56
2022/09/17 08:06:37;;;;;;;3.42;2.20;;;8.20;99.90;;;;;;4963482;28;20159;-55
2022/09/17 08:09:05;;;;;;;4.65;1.95;;;8.20;99.90;;;;;;4987129;28;20107;-56
2022/09/17 08:11:32;;;;;;;5.13;1.90;;;8.10;99.90;;;;;;4983428;28;20045;-56
2022/09/17 08:14:19;;;;;;;3.75;1.98;;;8.20;99.90;;;;;;4983959;28;20032;-56
2022/09/17 08:16:48;;;;;;;3.97;2.00;;;8.20;99.90;;;;;;4983490;28;20033;-57
2022/09/17 08:19:17;;;;;;;2.58;1.95;;;8.30;99.90;;;;;;4992998;28;20293;-56
2022/09/17 08:21:45;;;;;;;4.88;2.78;;;8.30;99.90;;;;;;4980043;28;20104;-55
2022/09/17 08:24:12;;;;;;;3.30;2.35;;;8.30;99.90;;;;;;4988919;28;20041;-56
2022/09/17 08:26:40;;;;;;;4.53;2.03;;;8.30;99.90;;;;;;4981616;28;20041;-56
2022/09/17 08:29:09;;;;;;;5.65;2.08;;;8.40;99.90;;;;;;4975766;28;20049;-55
2022/09/17 08:31:36;;;;;;;3.15;1.70;;;8.50;99.90;;;;;;4984827;28;20143;-56
2022/09/17 08:34:08;;;;;;;3.50;1.75;;;8.60;99.90;;;;;;4984881;28;20691;-54
2022/09/17 08:36:37;;;;;;;8.40;3.05;;;8.70;99.90;;;;;;4975548;28;20918;-57
2022/09/17 08:39:05;;;;;;;3.42;1.75;;;8.80;99.90;;;;;;4980011;28;20383;-56
2022/09/17 08:41:39;;;;;;;1.63;1.35;;;8.80;99.90;;;;;;4983356;28;20633;-57
2022/09/17 08:44:20;;;;;;;1.98;1.67;;;8.80;99.90;;;;;;4991870;28;20044;-55
2022/09/17 08:46:49;;;;;;;1.80;1.48;;;8.80;99.90;;;;;;4981778;28;20041;-56
2022/09/17 08:49:36;;;;;;;1.33;1.23;;;8.80;99.90;;;;;;4981761;28;20613;-56
2022/09/17 08:52:29;;;;;;;2.45;1.50;;;8.70;99.90;;;;;;4991058;28;20614;-54
2022/09/17 08:55:33;;;;;;;3.08;1.73;;;8.60;99.90;;;;;;4980369;28;20144;-55
2022/09/17 08:58:36;;;;;;;4.18;1.73;;;8.60;99.90;;;;;;4982660;28;20361;-55
2022/09/17 09:01:28;;;;;;;3.55;2.30;;;8.90;99.90;;;;;;4981751;28;20155;-60
2022/09/17 09:04:02;;;;;;;5.18;2.08;;;9.40;99.90;;;;;;4985079;28;20582;-60
2022/09/17 09:06:35;;;;;;;1.65;1.45;;;9.50;99.90;;;;;;4981133;28;20052;-56
2022/09/17 09:09:09;;;;;;;3.60;1.80;;;9.60;99.90;;;;;;4985525;28;20119;-56
2022/09/17 09:11:37;;;;;;;4.93;1.38;;;9.50;99.90;;;;;;4974320;28;20041;-54
2022/09/17 09:14:47;;;;;;;8.18;2.00;;;9.50;99.90;;;;;;4974506;28;20939;-55
2022/09/17 09:17:17;;;;;;;2.88;1.85;;;9.70;99.90;;;;;;4977900;28;20227;-53
2022/09/17 09:19:46;;;;;;;1.88;1.58;;;10.20;99.90;;;;;;4981729;28;20041;-56
2022/09/17 09:22:25;;;;;;;2.53;2.03;;;10.50;99.90;;;;;;4983317;28;20061;-58
2022/09/17 09:25:04;;;;;;;2.13;1.20;;;10.70;99.90;;;;;;4978221;28;20065;-57
2022/09/17 09:28:20;;;;;;;4.75;1.65;;;10.90;99.90;;;;;;4982304;28;20064;-57
2022/09/17 09:31:03;;;;;;;3.60;1.40;;;10.80;99.90;;;;;;4968448;28;20160;-58
2022/09/17 09:33:35;;;;;;;1.35;1.20;;;10.80;99.90;;;;;;4990489;28;20053;-57
2022/09/17 09:36:10;;;;;;;3.20;1.38;;;10.70;99.90;;;;;;4984207;28;20180;-56
2022/09/17 09:39:01;;;;;;;2.30;1.20;;;10.60;99.90;;;;;;4978168;28;20202;-61
2022/09/17 09:41:42;;;;;;;2.35;1.25;;;10.60;99.90;;;;;;4984931;28;20905;-59
2022/09/17 09:44:15;;;;;;;11.05;1.60;;;10.60;99.90;;;;;;4983990;28;20049;-55
2022/09/17 09:47:05;;;;;;;6.63;1.30;;;10.30;99.90;;;;;;4989496;28;20045;-59
2022/09/17 09:49:39;;;;;;;1.40;1.20;;;9.70;99.90;;;;;;5002293;28;20052;-58
2022/09/17 09:52:15;;;;;;;1.85;0.52;;;9.10;99.90;;;;;;4988561;28;20102;-63
2022/09/17 09:55:07;;;;;;;1.35;0.57;;;8.60;99.90;;;;;;4966109;28;20045;-57
2022/09/17 09:57:46;;;;;;;2.08;0.80;;;8.10;99.90;;;;;;4986850;28;20241;-57
2022/09/17 10:00:28;;;;;;;1.25;0.90;;;7.70;99.90;;;;;;4984664;28;20040;-55
2022/09/17 10:03:05;;;;;;;2.45;0.90;;;7.60;99.90;;;;;;4984988;28;20140;-57
2022/09/17 10:05:34;;;;;;;2.90;1.40;;;7.50;99.90;;;;;;4982562;28;20037;-56
2022/09/17 10:08:11;;;;;;;3.50;1.90;;;7.70;99.90;;;;;;4985995;28;20030;-55
2022/09/17 10:11:00;;;;;;;5.28;3.25;;;8.20;99.90;;;;;;4985199;28;20621;-57
2022/09/17 10:13:30;;;;;;;5.47;3.25;;;9.00;99.90;;;;;;4983633;28;20090;-57
2022/09/17 10:16:28;;;;;;;7.55;3.03;;;9.50;99.90;;;;;;4986331;28;20746;-56
2022/09/17 10:19:01;;;;;;;4.00;2.50;;;10.10;99.90;;;;;;4981923;28;20832;-56
2022/09/17 10:21:41;;;;;;;1.70;1.60;;;10.60;99.90;;;;;;4987247;28;20797;-57
2022/09/17 10:24:24;;;;;;;3.45;1.75;;;10.90;99.90;;;;;;4993152;28;20060;-55
2022/09/17 10:27:01;;;;;;;6.95;1.88;;;11.20;99.90;;;;;;4984998;28;20048;-58
2022/09/17 10:29:28;;;;;;;3.67;1.70;;;11.50;99.90;;;;;;4993482;28;20474;-57
2022/09/17 10:31:57;;;;;;;2.78;1.20;;;11.80;99.90;;;;;;4977530;28;20033;-55
2022/09/17 10:34:26;;;;;;;1.88;1.13;;;11.90;99.90;;;;;;4981970;28;20050;-55
2022/09/17 10:36:55;;;;;;;3.05;1.02;;;12.10;99.90;;;;;;4994676;28;20210;-57
2022/09/17 10:39:45;;;;;;;4.28;0.77;;;12.10;99.90;;;;;;4984171;28;20041;-56
2022/09/17 10:42:16;;;;;;;2.47;0.73;;;12.00;99.90;;;;;;4984582;28;20075;-56
2022/09/17 10:44:54;;;;;;;1.00;0.73;;;11.70;99.90;;;;;;4985097;28;20089;-57
2022/09/17 10:47:28;;;;;;;1.05;0.70;;;11.50;99.90;;;;;;4985852;28;20134;-56
2022/09/17 10:50:02;;;;;;;2.28;0.80;;;11.30;99.90;;;;;;4990357;28;20609;-56
2022/09/17 10:52:36;;;;;;;1.42;1.13;;;11.20;99.90;;;;;;4987898;28;20201;-56
2022/09/17 10:55:17;;;;;;;2.35;1.05;;;11.10;99.90;;;;;;4986326;28;20048;-58
2022/09/17 10:58:10;;;;;;;1.90;1.10;;;11.20;99.90;;;;;;4983361;28;20045;-57
2022/09/17 11:00:49;;;;;;;1.10;0.70;;;11.30;99.90;;;;;;4984765;28;20127;-57
2022/09/17 11:03:35;;;;;;;3.60;1.05;;;11.50;99.90;;;;;;4985552;28;20061;-56
2022/09/17 11:06:44;;;;;;;1.75;0.90;;;11.50;99.90;;;;;;4976677;28;20616;-57
2022/09/17 11:09:20;;;;;;;1.45;0.75;;;11.50;99.90;;;;;;4988563;28;20037;-54
2022/09/17 11:12:11;;;;;;;2.38;0.88;;;11.50;99.90;;;;;;4980469;28;20215;-60
2022/09/17 11:15:00;;;;;;;1.25;0.98;;;11.60;99.90;;;;;;4982626;28;20056;-58
2022/09/17 11:17:40;;;;;;;2.42;1.00;;;11.60;99.90;;;;;;4981399;28;20041;-62
2022/09/17 11:20:40;;;;;;;2.90;0.88;;;11.80;99.90;;;;;;4997620;28;20162;-57
2022/09/17 11:23:30;;;;;;;1.80;0.88;;;11.80;99.90;;;;;;4971994;28;20045;-55
2022/09/17 11:26:31;;;;;;;2.22;1.00;;;11.70;99.90;;;;;;4991192;28;20030;-53
2022/09/17 11:29:09;;;;;;;3.08;0.95;;;11.50;99.90;;;;;;4982338;28;20897;-53
2022/09/17 11:31:59;;;;;;;1.00;0.82;;;11.10;99.90;;;;;;4983850;28;20048;-52
2022/09/17 11:34:57;;;;;;;1.55;0.77;;;10.80;99.90;;;;;;4978819;28;20052;-53
2022/09/17 11:37:32;;;;;;;3.30;1.23;;;10.50;99.90;;;;;;4985070;28;20037;-55
2022/09/17 11:40:05;;;;;;;8.27;0.98;;;10.30;99.90;;;;;;4991897;28;20046;-56
2022/09/17 11:42:44;;;;;;;3.47;0.93;;;10.20;99.90;;;;;;4983267;28;20042;-55
2022/09/17 11:45:39;;;;;;;3.05;1.10;;;10.30;99.90;;;;;;4980510;28;20124;-56
2022/09/17 11:48:13;;;;;;;3.55;1.15;;;10.30;99.90;;;;;;4975109;28;20053;-56
2022/09/17 11:50:48;;;;;;;2.22;0.80;;;10.30;99.90;;;;;;4960460;28;20045;-55
2022/09/17 11:53:39;;;;;;;2.38;0.95;;;10.30;99.90;;;;;;4985582;28;20056;-56
2022/09/17 11:56:07;;;;;;;1.42;0.80;;;10.30;99.90;;;;;;4992606;28;20056;-56
2022/09/17 11:58:43;;;;;;;3.22;0.68;;;10.20;99.90;;;;;;4978475;28;20037;-55
2022/09/17 12:01:17;;;;;;;3.22;0.70;;;10.10;99.90;;;;;;4982051;28;20056;-55
2022/09/17 12:04:14;;;;;;;2.17;0.80;;;10.00;99.90;;;;;;4981958;28;20056;-57
2022/09/17 12:07:15;;;;;;;3.15;1.00;;;10.00;99.90;;;;;;4982025;28;20048;-55
2022/09/17 12:09:47;;;;;;;2.45;0.75;;;10.00;99.90;;;;;;4991111;28;20037;-57
2022/09/17 12:12:19;;;;;;;3.22;0.90;;;10.10;99.90;;;;;;4985046;28;20922;-56
2022/09/17 12:15:29;;;;;;;2.78;0.70;;;10.20;99.90;;;;;;4976416;28;20630;-57
2022/09/17 12:18:06;;;;;;;2.85;2.10;;;10.20;99.90;;;;;;4985967;28;20150;-54
2022/09/17 12:20:58;;;;;;;5.50;1.27;;;10.20;99.90;;;;;;4985551;28;20045;-55
2022/09/17 12:23:38;;;;;;;1.83;0.85;;;10.10;99.90;;;;;;4982476;28;20045;-53
2022/09/17 12:26:31;;;;;;;6.95;1.13;;;10.10;99.90;;;;;;4992301;28;20658;-53
2022/09/17 12:29:29;;;;;;;5.13;1.27;;;10.00;99.90;;;;;;4982292;28;20037;-54
2022/09/17 12:32:35;;;;;;;2.05;1.15;;;9.80;99.90;;;;;;4967612;28;20048;-54
2022/09/17 12:35:47;;;;;;;2.85;0.65;;;9.40;99.90;;;;;;4970291;28;20144;-62
2022/09/17 12:39:05;;;;;;;1.35;0.70;;;9.00;99.90;;;;;;4966716;28;20069;-57
2022/09/17 12:41:46;;;;;;;1.35;0.80;;;8.70;99.90;;;;;;4978822;28;20044;-60
2022/09/17 12:44:36;;;;;;;1.15;0.63;;;8.60;99.90;;;;;;4967791;28;20600;-60
2022/09/17 12:47:42;;;;;;;6.35;1.20;;;8.50;99.90;;;;;;4974535;28;20045;-54
2022/09/17 12:50:31;;;;;;;3.03;1.08;;;8.50;99.90;;;;;;4974647;28;20179;-56
2022/09/17 12:53:17;;;;;;;0.70;0.70;;;8.60;99.90;;;;;;4969264;28;20406;-56
2022/09/17 12:56:34;;;;;;;2.60;1.40;;;8.70;99.90;;;;;;4969679;28;20248;-57
2022/09/17 12:59:13;;;;;;;3.13;1.98;;;8.90;99.90;;;;;;4911635;28;20604;-56
2022/09/17 13:01:47;;;;;;;5.95;2.13;;;9.10;99.90;;;;;;4932493;28;20050;-56
2022/09/17 13:04:47;;;;;;;7.68;2.08;;;9.20;99.90;;;;;;4950506;28;20065;-62
2022/09/17 13:07:52;;;;;;;2.58;1.73;;;9.50;99.90;;;;;;4969970;28;20041;-56
2022/09/17 13:10:39;;;;;;;8.00;2.45;;;9.70;99.90;;;;;;4967288;28;20060;-58
2022/09/17 13:13:22;;;;;;;3.78;1.60;;;9.90;99.90;;;;;;4976640;28;20061;-56
2022/09/17 13:16:19;;;;;;;5.70;1.83;;;10.10;99.90;;;;;;4974599;28;20566;-58
2022/09/17 13:19:06;;;;;;;3.75;1.48;;;10.20;99.90;;;;;;4955838;28;20042;-59
2022/09/17 13:22:14;;;;;;;5.82;2.15;;;10.30;99.90;;;;;;4970585;28;20091;-58
2022/09/17 13:25:10;;;;;;;2.35;1.30;;;10.20;99.90;;;;;;4983719;28;20613;-56
2022/09/17 13:27:39;;;;;;;4.47;0.93;;;10.10;99.90;;;;;;4973394;28;20087;-58
2022/09/17 13:30:09;;;;;;;1.42;1.25;;;9.90;99.90;;;;;;4978245;28;20041;-58
2022/09/17 13:32:38;;;;;;;2.05;0.80;;;9.50;99.90;;;;;;4958372;28;20353;-61
2022/09/17 13:35:08;;;;;;;4.95;1.42;;;9.10;99.90;;;;;;4971660;28;20302;-53
2022/09/17 13:37:55;;;;;;;3.97;2.40;;;8.70;99.90;;;;;;4975066;28;20045;-51
2022/09/17 13:40:33;;;;;;;3.73;2.23;;;8.40;99.90;;;;;;4969839;28;20048;-53
2022/09/17 13:43:07;;;;;;;2.58;1.50;;;8.30;99.90;;;;;;4970071;28;20048;-53